»·PEaware :: N425GJ KPHX-KLAS

N425GJ :: KPHX-KLAS

FLIGHT INFORMATION

Flight Status: Arrived
Operator: Privately registered:
United States
More flights under this callsign
Pilot: Nathan L. (43094)
Aircraft: CESSNA 510 CITATION MUSTANG
(C510)
More flights by this aircraft type
Origin: KPHX Phoenix Sky Harbor Intl
United States
Destination: KLAS Harry Reid Intl
United States
More flights between these airports :: More routes between these airports
Route: ZEPER2 RRSTA ELLDA RKSTR3
File this flight plan on PilotEdge
Remarks: RMK / SIMBRIEF
Altitude:
(Current/Filed)
28,000ft
Speed:
(Current/Filed)
350kts
Departed: 18-Mar-23 02:50 PM
Arrived: 18-Mar-23 03:46 PM
Distance/Time
Traveled:
223nm/0:56
Distance/Time
To Go:
Arrived

Flight Plot

Page will automatically refresh every two minutes.

Flight plan parsing failed; only flown route is shown


Map Options




Map Legend


Flown Route
Filed Route
Departure Airport
Arrival Airport
Navaid (VOR, NDB)
Fix

Horizontal Profiles

Position Reports

Time Latitude Longitude Heading Altitude Ground
Speed
18-Mar-23 14:28 33.426351 -112.018206 90 1113ft 0kts
18-Mar-23 14:29 33.426351 -112.018206 90 1113ft 0kts
18-Mar-23 14:30 33.426351 -112.018206 90 1113ft 0kts
18-Mar-23 14:31 33.426351 -112.018206 90 1113ft 0kts
18-Mar-23 14:32 33.426351 -112.018206 90 1113ft 0kts
18-Mar-23 14:33 33.426351 -112.018206 90 1113ft 0kts
18-Mar-23 14:34 33.426351 -112.018206 90 1113ft 0kts
18-Mar-23 14:35 33.426351 -112.018206 90 1113ft 0kts
18-Mar-23 14:36 33.426351 -112.018206 90 1113ft 0kts
18-Mar-23 14:37 33.426351 -112.018206 90 1113ft 0kts
18-Mar-23 14:38 33.426351 -112.018206 90 1113ft 0kts
18-Mar-23 14:39 33.426351 -112.018206 90 1113ft 0kts
18-Mar-23 14:40 33.426351 -112.018206 90 1113ft 0kts
18-Mar-23 14:41 33.426351 -112.018206 90 1113ft 0kts
18-Mar-23 14:42 33.426351 -112.018206 90 1113ft 0kts
18-Mar-23 14:43 33.426351 -112.018206 90 1113ft 0kts
18-Mar-23 14:44 33.426351 -112.018205 90 1113ft 0kts
18-Mar-23 14:45 33.426351 -112.018206 90 1113ft 0kts
18-Mar-23 14:46 33.427753 -112.018303 272 1113ft 19kts
18-Mar-23 14:47 33.427774 -112.026552 272 1110ft 16kts
18-Mar-23 14:48 33.427963 -112.026873 341 1110ft 0kts
18-Mar-23 14:49 33.429538 -112.004373 77 1673ft 159kts
18-Mar-23 14:50 33.433354 -111.939202 86 4846ft 227kts
18-Mar-23 14:51 33.449297 -111.868356 26 7834ft 240kts
18-Mar-23 14:52 33.514776 -111.853160 7 10853ft 241kts
18-Mar-23 14:53 33.580566 -111.844879 6 13835ft 235kts
18-Mar-23 14:54 33.643624 -111.837543 6 16777ft 223kts
18-Mar-23 14:55 33.705789 -111.845160 350 19123ft 232kts
18-Mar-23 14:56 33.755620 -111.884655 299 21114ft 235kts
18-Mar-23 14:57 33.795068 -111.949669 297 23133ft 243kts
18-Mar-23 14:58 33.834720 -112.015041 296 25252ft 241kts
18-Mar-23 14:59 33.873596 -112.079034 294 27350ft 233kts
18-Mar-23 15:00 33.913033 -112.145100 295 28098ft 266kts
18-Mar-23 15:01 33.959430 -112.222330 297 28091ft 301kts
18-Mar-23 15:02 34.010281 -112.306214 297 28087ft 317kts
18-Mar-23 15:03 34.068287 -112.375391 312 28092ft 337kts
18-Mar-23 15:04 34.140707 -112.448098 312 28104ft 339kts
18-Mar-23 15:05 34.213449 -112.521293 312 28145ft 339kts
18-Mar-23 15:06 34.285788 -112.594327 311 28167ft 340kts
18-Mar-23 15:07 34.358394 -112.667880 311 28175ft 341kts
18-Mar-23 15:08 34.431120 -112.741639 311 28175ft 342kts
18-Mar-23 15:09 34.504107 -112.815847 311 28175ft 343kts
18-Mar-23 15:10 34.577114 -112.890337 311 28175ft 344kts
18-Mar-23 15:11 34.650666 -112.965492 311 28176ft 346kts
18-Mar-23 15:12 34.724268 -113.040913 311 28176ft 348kts
18-Mar-23 15:13 34.793920 -113.121748 305 28165ft 345kts
18-Mar-23 15:14 34.860276 -113.206013 305 28153ft 346kts
18-Mar-23 15:15 34.926613 -113.290980 306 28140ft 346kts
18-Mar-23 15:16 34.992886 -113.375724 312 28134ft 348kts
18-Mar-23 15:17 35.067527 -113.450615 317 28138ft 348kts
18-Mar-23 15:18 35.142499 -113.525475 317 28134ft 346kts
18-Mar-23 15:19 35.216339 -113.599863 317 28053ft 348kts
18-Mar-23 15:20 35.294067 -113.678723 317 26163ft 360kts
18-Mar-23 15:21 35.371249 -113.756956 317 26137ft 362kts
18-Mar-23 15:22 35.448585 -113.835614 317 26137ft 362kts
18-Mar-23 15:23 35.525477 -113.914166 317 24622ft 355kts
18-Mar-23 15:24 35.600107 -113.990602 318 22774ft 346kts
18-Mar-23 15:25 35.672931 -114.065312 318 20973ft 337kts
18-Mar-23 15:26 35.743980 -114.138360 318 19230ft 328kts
18-Mar-23 15:27 35.792850 -114.230573 296 19130ft 324kts
18-Mar-23 15:28 35.834521 -114.327414 286 17390ft 314kts
18-Mar-23 15:29 35.828046 -114.431575 260 15759ft 303kts
18-Mar-23 15:30 35.817020 -114.533401 261 14165ft 296kts
18-Mar-23 15:31 35.806157 -114.633429 261 14001ft 295kts
18-Mar-23 15:32 35.795137 -114.734161 260 14000ft 295kts
18-Mar-23 15:33 35.784116 -114.833544 260 12684ft 290kts
18-Mar-23 15:34 35.773226 -114.931173 261 11155ft 284kts
18-Mar-23 15:35 35.771610 -115.027834 269 9588ft 273kts
18-Mar-23 15:36 35.771325 -115.119951 270 9005ft 271kts
18-Mar-23 15:37 35.779749 -115.205677 314 8006ft 248kts
18-Mar-23 15:38 35.836481 -115.246093 344 7731ft 237kts
18-Mar-23 15:39 35.893741 -115.267498 345 6380ft 204kts
18-Mar-23 15:40 35.944615 -115.244776 24 5452ft 195kts
18-Mar-23 15:41 35.990062 -115.218947 24 4337ft 167kts
18-Mar-23 15:42 36.031580 -115.195319 24 3343ft 148kts
18-Mar-23 15:43 36.064039 -115.176819 25 2533ft 107kts
18-Mar-23 15:44 36.087579 -115.163360 25 2132ft 49kts
18-Mar-23 15:45 36.089362 -115.163566 268 2129ft 0kts
18-Mar-23 15:46 36.089362 -115.163566 268 2129ft 0kts
18-Mar-23 15:47 36.088300 -115.165360 203 2139ft 9kts
18-Mar-23 15:48 36.083125 -115.168335 206 2160ft 17kts
18-Mar-23 15:49 36.085567 -115.167904 348 2154ft 27kts

Navigation Log

Ident Type
Flight plan parsing failed, navigation log unavailable